createdAt,value
2022-10-22T00:02:20.775Z,96669.91
2022-10-22T00:06:20.906Z,96668.34
2022-10-22T00:10:21.074Z,96667.94
2022-10-22T00:14:23.820Z,96667.09
2022-10-22T00:18:23.902Z,96667.88
2022-10-22T00:22:24.052Z,96672.09
2022-10-22T00:26:24.669Z,96670.00
2022-10-22T00:30:27.474Z,96679.28
2022-10-22T00:34:30.032Z,96638.06
2022-10-22T00:38:30.171Z,96672.28
2022-10-22T00:42:32.188Z,96673.50
2022-10-22T00:46:35.095Z,96676.91
2022-10-22T00:50:38.876Z,96678.31
2022-10-22T00:54:40.354Z,96676.69
2022-10-22T00:58:48.011Z,96673.81
2022-10-22T01:02:53.497Z,96682.06
2022-10-22T01:06:54.314Z,96668.03
2022-10-22T01:11:10.699Z,96674.31
2022-10-22T01:15:25.333Z,96670.84
2022-10-22T01:19:48.697Z,96666.31
2022-10-22T01:24:21.286Z,96650.19
2022-10-22T01:28:30.665Z,96665.13
2022-10-22T01:32:40.569Z,96668.34
2022-10-22T01:36:42.785Z,96669.91
2022-10-22T01:40:45.555Z,96664.75
2022-10-22T01:44:46.622Z,96669.41
2022-10-22T01:49:13.669Z,96679.19
2022-10-22T01:53:26.157Z,96666.94
2022-10-22T01:57:39.760Z,96655.38
2022-10-22T02:01:51.725Z,96656.75
2022-10-22T02:06:02.366Z,96656.06
2022-10-22T02:10:04.039Z,96634.63
2022-10-22T02:14:09.762Z,96628.66
2022-10-22T02:18:12.941Z,96624.25
2022-10-22T02:22:16.417Z,96621.94
2022-10-22T02:26:31.119Z,96610.09
2022-10-22T02:30:31.500Z,96625.66
2022-10-22T02:34:34.813Z,96626.75
2022-10-22T02:38:39.817Z,96626.28
2022-10-22T02:42:43.235Z,96625.47
2022-10-22T02:46:46.101Z,96621.28
2022-10-22T02:50:46.553Z,96629.09
2022-10-22T02:54:49.256Z,96640.19
2022-10-22T02:58:49.409Z,96637.44
2022-10-22T03:02:49.525Z,96640.75
2022-10-22T03:06:49.697Z,96645.56
2022-10-22T03:10:52.422Z,96637.56
2022-10-22T03:14:52.568Z,96640.66
2022-10-22T03:18:52.675Z,96639.88
2022-10-22T03:22:53.007Z,96630.59
2022-10-22T03:26:56.068Z,96621.84
2022-10-22T03:30:56.300Z,96644.91
2022-10-22T03:34:56.444Z,96653.25
2022-10-22T03:38:57.075Z,96639.91
2022-10-22T03:43:01.343Z,96647.69
2022-10-22T03:47:02.747Z,96654.31
2022-10-22T03:51:03.101Z,96648.84
2022-10-22T03:55:03.180Z,96637.53
2022-10-22T03:59:06.547Z,96650.69
2022-10-22T04:03:07.458Z,96657.47
2022-10-22T04:07:08.264Z,96679.78
2022-10-22T04:11:08.584Z,96688.88
2022-10-22T04:15:12.809Z,96707.09
2022-10-22T04:19:14.500Z,96716.91
2022-10-22T04:23:15.085Z,96730.16
2022-10-22T04:27:15.142Z,96710.47
2022-10-22T04:31:21.185Z,96739.47
2022-10-22T04:35:21.518Z,96731.00
2022-10-22T04:39:21.613Z,96746.53
2022-10-22T04:43:21.724Z,96729.69
2022-10-22T04:47:24.478Z,96726.13
2022-10-22T04:51:27.207Z,96721.47
2022-10-22T04:55:27.319Z,96716.41
2022-10-22T04:59:27.448Z,96718.56
2022-10-22T05:03:31.018Z,96702.00
2022-10-22T05:07:31.176Z,96736.78
2022-10-22T05:11:36.614Z,96736.88
2022-10-22T05:15:36.928Z,96745.50
2022-10-22T05:19:40.241Z,96757.66
2022-10-22T05:23:40.691Z,96759.63
2022-10-22T05:27:41.064Z,96773.59
2022-10-22T05:31:41.656Z,96770.25
2022-10-22T05:35:46.762Z,96780.63
2022-10-22T05:39:47.125Z,96784.31
2022-10-22T05:43:47.744Z,96789.88
2022-10-22T05:47:47.870Z,96781.41
2022-10-22T05:51:50.624Z,96791.69
2022-10-22T05:55:50.745Z,96786.78
2022-10-22T05:59:50.861Z,96795.91
2022-10-22T06:03:52.127Z,96796.06
2022-10-22T06:07:55.063Z,96784.81
2022-10-22T06:11:55.739Z,96817.94
2022-10-22T06:15:56.252Z,96814.81
2022-10-22T06:19:56.474Z,96818.63
2022-10-22T06:24:00.212Z,96812.63
2022-10-22T06:28:00.407Z,96824.56
2022-10-22T06:32:00.556Z,96830.25
2022-10-22T06:36:08.853Z,96815.94
2022-10-22T06:40:13.778Z,96828.63
2022-10-22T06:44:19.215Z,96824.66
2022-10-22T06:48:19.362Z,96827.66
2022-10-22T06:52:20.315Z,96845.53
2022-10-22T06:56:25.815Z,96859.50
2022-10-22T07:00:26.441Z,96854.44
2022-10-22T07:04:26.651Z,96837.09
2022-10-22T07:08:26.912Z,96878.00
2022-10-22T07:12:29.943Z,96888.91
2022-10-22T07:16:32.471Z,96887.38
2022-10-22T07:20:32.953Z,96904.13
2022-10-22T07:24:33.280Z,96898.94
2022-10-22T07:28:38.029Z,96901.63
2022-10-22T07:32:38.237Z,96903.63
2022-10-22T07:36:38.461Z,96913.22
2022-10-22T07:40:39.747Z,96872.47
2022-10-22T07:44:42.621Z,96919.84
2022-10-22T07:48:42.777Z,96921.41
2022-10-22T07:52:43.544Z,96916.69
2022-10-22T07:56:43.959Z,96921.81
2022-10-22T08:00:47.286Z,96930.13
2022-10-22T08:04:47.755Z,96933.91
2022-10-22T08:08:48.601Z,96938.31
2022-10-22T08:12:48.799Z,96951.66
2022-10-22T08:16:51.770Z,96947.47
2022-10-22T08:20:51.868Z,96948.09
2022-10-22T08:24:52.101Z,96953.50
2022-10-22T08:28:52.251Z,96967.25
2022-10-22T08:32:55.110Z,96977.56
2022-10-22T08:36:55.257Z,96959.47
2022-10-22T08:40:59.704Z,96961.38
2022-10-22T08:45:15.241Z,96969.16
2022-10-22T08:49:25.542Z,96960.06
2022-10-22T08:53:37.186Z,96957.00
2022-10-22T08:57:54.819Z,96959.03
2022-10-22T09:01:57.313Z,96964.94
2022-10-22T09:06:11.073Z,96959.69
2022-10-22T09:10:15.385Z,96963.09
2022-10-22T09:14:20.048Z,96940.91
2022-10-22T09:18:37.994Z,96963.88
2022-10-22T09:22:50.986Z,96953.34
2022-10-22T09:26:51.241Z,96963.44
2022-10-22T09:30:51.993Z,96957.13
2022-10-22T09:34:59.000Z,96957.19
2022-10-22T09:39:02.447Z,96958.66
2022-10-22T09:43:03.088Z,96944.66
2022-10-22T09:47:03.483Z,96975.19
2022-10-22T09:51:21.488Z,96977.50
2022-10-22T09:55:27.051Z,96973.88
2022-10-22T09:59:36.099Z,96983.41
2022-10-22T10:03:37.613Z,96971.66
2022-10-22T10:07:39.697Z,97002.53
2022-10-22T10:11:51.677Z,97004.84
2022-10-22T10:16:03.632Z,96994.94
2022-10-22T10:20:20.930Z,97013.34
2022-10-22T10:24:34.592Z,97029.41
2022-10-22T10:29:05.093Z,97015.31
2022-10-22T10:33:19.503Z,97028.88
2022-10-22T10:37:26.292Z,97022.03
2022-10-22T10:41:41.526Z,97008.88
2022-10-22T10:46:00.251Z,97027.97
2022-10-22T10:50:19.581Z,97029.63
2022-10-22T10:59:15.279Z,97028.94
2022-10-22T11:04:14.610Z,96996.22
2022-10-22T11:08:21.752Z,97014.13
2022-10-22T11:12:29.518Z,97019.84
2022-10-22T11:16:38.055Z,97026.88
2022-10-22T11:20:54.949Z,97029.72
2022-10-22T11:25:03.239Z,97023.63
2022-10-22T11:29:06.331Z,97008.59
2022-10-22T11:33:14.088Z,97016.59
2022-10-22T11:37:18.354Z,97010.19
2022-10-22T11:41:24.768Z,97021.88
2022-10-22T11:45:34.767Z,97021.94
2022-10-22T11:49:46.662Z,97022.44
2022-10-22T11:53:57.983Z,97021.53
2022-10-22T11:58:02.449Z,97021.59
2022-10-22T12:02:03.140Z,97015.25
2022-10-22T12:06:21.853Z,97011.31
2022-10-22T12:10:31.268Z,97008.66
2022-10-22T12:14:37.293Z,97009.78
2022-10-22T12:18:45.717Z,97007.34
2022-10-22T12:22:46.763Z,97005.34
2022-10-22T12:26:49.954Z,96998.25
2022-10-22T12:30:50.599Z,96996.59
2022-10-22T12:34:53.811Z,96986.00
2022-10-22T12:38:54.416Z,96993.63
2022-10-22T12:43:00.571Z,96997.34
2022-10-22T12:47:01.535Z,97001.84
2022-10-22T12:51:07.239Z,96995.19
2022-10-22T12:55:10.767Z,97004.00
2022-10-22T12:59:24.564Z,96999.97
2022-10-22T13:03:33.284Z,97000.72
2022-10-22T13:07:44.072Z,96998.09
2022-10-22T13:11:52.774Z,96975.72
2022-10-22T13:15:56.931Z,96983.63
2022-10-22T13:20:05.527Z,96987.16
2022-10-22T13:24:22.876Z,96974.28
2022-10-22T13:28:25.428Z,96997.88
2022-10-22T13:32:35.692Z,96987.16
2022-10-22T13:36:36.456Z,96974.47
2022-10-22T13:40:36.849Z,96976.38
2022-10-22T13:44:37.138Z,96976.88
2022-10-22T13:48:40.103Z,96999.66
2022-10-22T13:52:44.973Z,96996.41
2022-10-22T13:56:45.083Z,96998.78
2022-10-22T14:00:48.607Z,96984.34
2022-10-22T14:04:52.272Z,97002.03
2022-10-22T14:08:59.415Z,96993.06
2022-10-22T14:12:59.519Z,97006.81
2022-10-22T14:16:59.710Z,97006.34
2022-10-22T14:21:07.531Z,97001.63
2022-10-22T14:25:09.068Z,96997.00
2022-10-22T14:29:10.598Z,96997.16
2022-10-22T14:33:17.703Z,97005.72
2022-10-22T14:37:24.977Z,97012.47
2022-10-22T14:41:27.772Z,97014.72
2022-10-22T14:45:30.125Z,97012.59
2022-10-22T14:49:30.323Z,97002.94
2022-10-22T14:53:33.047Z,97010.66
2022-10-22T14:57:34.450Z,96998.09
2022-10-22T15:01:34.708Z,97006.47
2022-10-22T15:05:36.309Z,97014.34
2022-10-22T15:09:39.073Z,97003.53
2022-10-22T15:13:39.463Z,97009.31
2022-10-22T15:17:39.859Z,97017.28
2022-10-22T15:25:46.741Z,97023.41
2022-10-22T15:29:46.858Z,97031.38
2022-10-22T15:33:47.131Z,97023.88
2022-10-22T15:37:47.392Z,97032.72
2022-10-22T15:41:51.384Z,97027.34
2022-10-22T15:46:12.865Z,97039.31
2022-10-22T15:50:13.007Z,97049.00
2022-10-22T15:54:18.188Z,97048.16
2022-10-22T15:58:21.031Z,97058.00
2022-10-22T16:02:21.324Z,97053.06
2022-10-22T16:06:21.553Z,97054.88
2022-10-22T16:10:21.904Z,97075.03
2022-10-22T16:14:26.383Z,97073.19
2022-10-22T16:18:26.732Z,97074.41
2022-10-22T16:22:27.400Z,97084.69
2022-10-22T16:26:27.595Z,97090.13
2022-10-22T16:30:30.405Z,97082.00
2022-10-22T16:34:30.891Z,97100.97
2022-10-22T16:38:31.524Z,97104.41
2022-10-22T16:42:32.205Z,97121.63
2022-10-22T16:46:38.338Z,97110.94
2022-10-22T16:50:41.946Z,97093.34
2022-10-22T16:54:42.157Z,97149.31
2022-10-22T16:58:47.157Z,97131.09
2022-10-22T17:02:55.722Z,97133.69
2022-10-22T17:06:56.086Z,97119.66
2022-10-22T17:10:56.397Z,97129.06
2022-10-22T17:14:56.626Z,97152.97
2022-10-22T17:19:00.382Z,97155.50
2022-10-22T17:23:00.617Z,97149.00
2022-10-22T17:27:00.797Z,97150.06
2022-10-22T17:31:10.124Z,97152.75
2022-10-22T17:35:13.921Z,97175.63
2022-10-22T17:39:20.365Z,97169.31
2022-10-22T17:43:20.853Z,97163.03
2022-10-22T17:47:22.187Z,97179.09
2022-10-22T17:51:27.736Z,97169.75
2022-10-22T17:55:29.314Z,97173.06
2022-10-22T17:59:29.547Z,97134.66
2022-10-22T18:03:29.923Z,97165.09
2022-10-22T18:07:32.660Z,97177.81
2022-10-22T18:11:34.469Z,97158.59
2022-10-22T18:15:36.454Z,97161.94
2022-10-22T18:19:36.552Z,97159.72
2022-10-22T18:23:39.506Z,97156.16
2022-10-22T18:27:40.354Z,97167.03
2022-10-22T18:31:40.694Z,97188.50
2022-10-22T18:35:41.597Z,97196.13
2022-10-22T18:39:44.506Z,97196.69
2022-10-22T18:43:44.697Z,97197.81
2022-10-22T18:47:45.101Z,97204.84
2022-10-22T18:51:45.280Z,97218.28
2022-10-22T18:55:48.120Z,97207.56
2022-10-22T18:59:48.267Z,97212.94
2022-10-22T19:03:48.973Z,97206.56
2022-10-22T19:07:49.104Z,97204.94
2022-10-22T19:11:51.813Z,97216.25
2022-10-22T19:15:52.417Z,97216.88
2022-10-22T19:19:52.530Z,97217.38
2022-10-22T19:23:52.689Z,97213.97
2022-10-22T19:27:55.536Z,97222.84
2022-10-22T19:31:55.951Z,97226.88
2022-10-22T19:35:56.439Z,97212.16
2022-10-22T19:39:56.657Z,97203.34
2022-10-22T19:44:01.259Z,97217.53
2022-10-22T19:48:01.469Z,97211.63
2022-10-22T19:52:01.646Z,97235.25
2022-10-22T19:56:02.628Z,97239.94
2022-10-22T20:00:05.681Z,97256.03
2022-10-22T20:04:10.220Z,97240.56
2022-10-22T20:08:10.555Z,97235.69
2022-10-22T20:12:11.150Z,97257.69
2022-10-22T20:16:14.746Z,97237.31
2022-10-22T20:20:14.905Z,97254.50
2022-10-22T20:24:17.963Z,97249.41
2022-10-22T20:28:18.752Z,97229.56
2022-10-22T20:32:22.138Z,97242.72
2022-10-22T20:36:25.407Z,97209.69
2022-10-22T20:40:28.040Z,97249.66
2022-10-22T20:44:28.213Z,97250.22
2022-10-22T20:48:32.121Z,97247.53
2022-10-22T20:52:32.458Z,97233.03
2022-10-22T20:56:32.929Z,97241.31
2022-10-22T21:00:35.999Z,97199.19
2022-10-22T21:04:40.519Z,97243.72
2022-10-22T21:08:43.308Z,97247.72
2022-10-22T21:12:44.197Z,97237.22
2022-10-22T21:16:47.148Z,97238.75
2022-10-22T21:20:49.849Z,97243.13
2022-10-22T21:24:50.008Z,97216.47
2022-10-22T21:28:50.878Z,97264.50
2022-10-22T21:32:51.846Z,97258.84
2022-10-22T21:36:54.626Z,97260.75
2022-10-22T21:40:55.121Z,97265.59
2022-10-22T21:44:55.415Z,97241.91
2022-10-22T21:49:01.928Z,97249.72
2022-10-22T21:53:04.806Z,97258.06
2022-10-22T21:57:05.167Z,97239.75
2022-10-22T22:01:05.813Z,97261.78
2022-10-22T22:05:06.104Z,97245.19
2022-10-22T22:09:09.466Z,97240.00
2022-10-22T22:13:09.716Z,97246.69
2022-10-22T22:17:10.715Z,97257.13
2022-10-22T22:21:14.512Z,97266.72
2022-10-22T22:25:17.562Z,97267.47
2022-10-22T22:29:17.723Z,97219.81
2022-10-22T22:33:17.895Z,97256.38
2022-10-22T22:37:18.043Z,97239.22
2022-10-22T22:41:20.875Z,97249.97
2022-10-22T22:45:21.239Z,97246.00
2022-10-22T22:49:21.384Z,97239.41
2022-10-22T22:53:21.561Z,97220.91
2022-10-22T22:57:24.367Z,97236.72
2022-10-22T23:01:27.799Z,97232.97
2022-10-22T23:05:28.041Z,97237.31
2022-10-22T23:09:28.358Z,97239.50
2022-10-22T23:13:31.278Z,97228.22
2022-10-22T23:17:31.635Z,97227.16
2022-10-22T23:21:34.857Z,97216.16
2022-10-22T23:25:35.275Z,97213.50
2022-10-22T23:29:38.813Z,97211.13
2022-10-22T23:33:38.934Z,97197.47
2022-10-22T23:37:39.260Z,97197.19
2022-10-22T23:41:40.376Z,97197.19
2022-10-22T23:45:43.086Z,97192.34
2022-10-22T23:49:43.270Z,97187.81
2022-10-22T23:53:45.481Z,97194.00
2022-10-22T23:57:45.604Z,97199.38
